Time;durP1;ratioP1;P1;durP2;ratioP2;P2;SDS_P1;SDS_P2;PMS_P1;PMS_P2;Temp;Humidity;BMP_temperature;BMP_pressure;BME280_temperature;BME280_humidity;BME280_pressure;Samples;Min_cycle;Max_cycle;Signal;HPM_P1;HPM_P2
2022/11/15 00:02:44;;;;;;;12.90;8.43;;;4.10;99.90;;;;;;7611349;19;20594;-75
2022/11/15 00:05:35;;;;;;;11.90;7.70;;;4.00;99.90;;;;;;7615351;19;20501;-75
2022/11/15 00:08:30;;;;;;;12.90;8.57;;;4.00;99.90;;;;;;7614245;19;20020;-75
2022/11/15 00:11:20;;;;;;;13.35;8.57;;;4.00;99.90;;;;;;7615846;19;20018;-76
2022/11/15 00:14:11;;;;;;;12.00;7.75;;;3.90;99.90;;;;;;7609365;19;20022;-75
2022/11/15 00:17:02;;;;;;;14.13;8.35;;;3.90;99.90;;;;;;7617523;19;20018;-75
2022/11/15 00:19:52;;;;;;;11.23;8.05;;;3.90;99.90;;;;;;7621138;19;20022;-75
2022/11/15 00:22:43;;;;;;;14.82;8.40;;;3.90;99.90;;;;;;7623962;19;20117;-75
2022/11/15 00:25:33;;;;;;;11.75;8.00;;;3.80;99.90;;;;;;7609620;19;20122;-75
2022/11/15 00:28:25;;;;;;;14.10;8.35;;;3.80;99.90;;;;;;7623422;19;20022;-76
2022/11/15 00:31:16;;;;;;;12.43;7.40;;;3.70;99.90;;;;;;7616122;19;20105;-75
2022/11/15 00:34:06;;;;;;;12.38;7.70;;;3.70;99.90;;;;;;7618152;19;20018;-76
2022/11/15 00:36:57;;;;;;;11.32;7.80;;;3.70;99.90;;;;;;7617636;19;20021;-75
2022/11/15 00:39:47;;;;;;;10.52;7.22;;;3.60;99.90;;;;;;7618507;19;20026;-75
2022/11/15 00:42:38;;;;;;;12.77;8.02;;;3.60;99.90;;;;;;7612016;19;20042;-75
2022/11/15 00:45:28;;;;;;;15.80;7.07;;;3.60;99.90;;;;;;7614647;19;20026;-75
2022/11/15 00:48:19;;;;;;;11.95;7.78;;;3.60;99.90;;;;;;7622928;19;20022;-75
2022/11/15 00:51:09;;;;;;;13.82;7.25;;;3.60;99.90;;;;;;7615430;19;20022;-75
2022/11/15 00:54:00;;;;;;;13.13;7.78;;;3.40;99.90;;;;;;7609928;19;20011;-75
2022/11/15 00:56:51;;;;;;;13.60;8.05;;;3.50;99.90;;;;;;7610835;19;20018;-75
2022/11/15 00:59:41;;;;;;;12.23;7.90;;;3.40;99.90;;;;;;7616451;19;20014;-75
2022/11/15 01:02:32;;;;;;;11.18;7.13;;;3.40;99.90;;;;;;7611799;19;20053;-75
2022/11/15 01:05:22;;;;;;;14.90;8.07;;;3.50;99.90;;;;;;7611617;19;20021;-75
2022/11/15 01:08:15;;;;;;;13.63;7.93;;;3.40;99.90;;;;;;7608931;19;20025;-75
2022/11/15 01:11:11;;;;;;;13.98;8.70;;;3.50;99.90;;;;;;7615633;19;21042;-75
2022/11/15 01:14:02;;;;;;;14.25;8.55;;;3.40;99.90;;;;;;7600932;19;20038;-76
2022/11/15 01:16:58;;;;;;;13.27;8.18;;;3.40;99.90;;;;;;7604731;19;20026;-75
2022/11/15 01:19:49;;;;;;;14.00;8.05;;;3.40;99.90;;;;;;7602316;19;20014;-75
2022/11/15 01:22:39;;;;;;;14.00;8.30;;;3.40;99.90;;;;;;7613859;19;20953;-75
2022/11/15 01:25:29;;;;;;;12.57;8.63;;;3.40;99.90;;;;;;7613706;19;20033;-74
2022/11/15 01:28:20;;;;;;;12.90;7.72;;;3.40;99.90;;;;;;7613951;19;20026;-75
2022/11/15 01:31:16;;;;;;;10.95;7.45;;;3.30;99.90;;;;;;7607938;19;20115;-75
2022/11/15 01:34:07;;;;;;;12.93;7.82;;;3.40;99.90;;;;;;7618564;19;20022;-75
2022/11/15 01:36:57;;;;;;;13.55;7.80;;;3.30;99.90;;;;;;7611798;19;20043;-75
2022/11/15 01:39:48;;;;;;;12.82;7.55;;;3.30;99.90;;;;;;7607404;19;20037;-75
2022/11/15 01:42:38;;;;;;;10.82;6.68;;;3.30;99.90;;;;;;7605902;19;20601;-76
2022/11/15 01:45:28;;;;;;;13.57;6.82;;;3.40;99.90;;;;;;7609602;19;20018;-75
2022/11/15 01:48:20;;;;;;;10.80;7.07;;;3.50;99.90;;;;;;7611297;19;20018;-75
2022/11/15 01:51:17;;;;;;;11.93;6.60;;;3.50;99.90;;;;;;7605194;19;20553;-76
2022/11/15 01:54:13;;;;;;;11.98;7.32;;;3.50;99.90;;;;;;7606869;19;20022;-76
2022/11/15 01:57:09;;;;;;;10.45;7.35;;;3.50;99.90;;;;;;7612548;19;20022;-76
2022/11/15 02:00:01;;;;;;;10.27;6.97;;;3.40;99.90;;;;;;7611726;19;20415;-75
2022/11/15 02:02:52;;;;;;;11.95;7.60;;;3.40;99.90;;;;;;7604004;19;20022;-76
2022/11/15 02:05:43;;;;;;;9.93;6.65;;;3.30;99.90;;;;;;7609278;19;20033;-76
2022/11/15 02:08:34;;;;;;;10.88;5.72;;;3.40;99.90;;;;;;7613714;19;20086;-76
2022/11/15 02:11:25;;;;;;;8.93;6.03;;;3.40;99.90;;;;;;7616175;19;20019;-76
2022/11/15 02:14:19;;;;;;;12.13;7.10;;;3.30;99.90;;;;;;7620700;19;20458;-76
2022/11/15 02:17:36;;;;;;;9.43;6.57;;;3.30;99.90;;;;;;7611775;19;20006;-76
2022/11/15 02:20:46;;;;;;;10.52;7.13;;;3.10;99.90;;;;;;7617600;19;20053;-76
2022/11/15 02:23:56;;;;;;;9.15;5.80;;;3.00;99.90;;;;;;7616797;19;20018;-76
2022/11/15 02:27:05;;;;;;;10.65;5.97;;;3.10;99.90;;;;;;7614514;19;20098;-76
2022/11/15 02:30:19;;;;;;;7.47;5.25;;;3.00;99.90;;;;;;7615707;19;20021;-76
2022/11/15 02:33:26;;;;;;;10.00;5.68;;;3.00;99.90;;;;;;7616194;19;20018;-76
2022/11/15 02:37:04;;;;;;;8.70;5.47;;;3.00;99.90;;;;;;7616324;19;20022;-76
2022/11/15 02:40:07;;;;;;;9.20;5.53;;;3.00;99.90;;;;;;7612701;19;20625;-76
2022/11/15 02:49:50;;;;;;;;;;;3.10;99.90;;;;;;7616530;19;20022;-76
2022/11/15 02:52:40;;;;;;;7.90;5.03;;;3.00;99.90;;;;;;7612977;19;19930;-76
2022/11/15 02:55:40;;;;;;;8.82;5.38;;;2.90;99.90;;;;;;7616674;19;20490;-76
2022/11/15 02:59:07;;;;;;;8.63;5.35;;;2.80;99.90;;;;;;7618298;19;20014;-76
2022/11/15 03:02:19;;;;;;;10.00;5.97;;;2.80;99.90;;;;;;7609842;19;20018;-77
2022/11/15 03:05:28;;;;;;;10.20;5.60;;;2.80;99.90;;;;;;7616127;19;22151;-76
2022/11/15 03:08:32;;;;;;;9.38;5.70;;;2.80;99.90;;;;;;7615455;19;20019;-76
2022/11/15 03:11:24;;;;;;;11.45;6.22;;;2.80;99.90;;;;;;7608907;19;20022;-76
2022/11/15 03:14:29;;;;;;;12.13;6.18;;;2.80;99.90;;;;;;7610114;19;20079;-76
2022/11/15 03:17:51;;;;;;;12.73;6.28;;;2.80;99.90;;;;;;7610177;19;20018;-77
2022/11/15 03:20:43;;;;;;;11.50;5.85;;;2.80;99.90;;;;;;7603982;19;20022;-75
2022/11/15 03:23:36;;;;;;;11.60;6.05;;;2.80;99.90;;;;;;7606026;19;20010;-76
2022/11/15 03:26:28;;;;;;;9.13;6.03;;;2.80;99.90;;;;;;7614083;19;20025;-77
2022/11/15 03:29:24;;;;;;;9.98;6.47;;;2.70;99.90;;;;;;7608125;19;20021;-76
2022/11/15 03:32:23;;;;;;;8.30;5.45;;;2.70;99.90;;;;;;7609278;19;20094;-75
2022/11/15 03:35:21;;;;;;;10.35;6.65;;;2.70;99.90;;;;;;7609382;19;20021;-75
2022/11/15 03:38:26;;;;;;;8.23;5.38;;;2.60;99.90;;;;;;7606939;19;20596;-75
2022/11/15 03:41:28;;;;;;;8.75;6.03;;;2.60;99.90;;;;;;7613246;19;20029;-75
2022/11/15 03:44:39;;;;;;;7.20;5.13;;;2.50;99.90;;;;;;7614294;19;20045;-75
2022/11/15 03:47:53;;;;;;;10.55;5.82;;;2.50;99.90;;;;;;7613818;19;20035;-75
2022/11/15 03:50:45;;;;;;;6.50;4.40;;;2.50;99.90;;;;;;7614940;19;20022;-74
2022/11/15 03:53:36;;;;;;;9.13;5.15;;;2.40;99.90;;;;;;7615574;19;20086;-75
2022/11/15 03:56:27;;;;;;;6.15;4.25;;;2.40;99.90;;;;;;7616300;19;20038;-76
2022/11/15 03:59:18;;;;;;;6.88;4.57;;;2.40;99.90;;;;;;7611937;19;20029;-75
2022/11/15 04:02:08;;;;;;;7.00;4.55;;;2.30;99.90;;;;;;7617270;19;20018;-75
2022/11/15 04:04:59;;;;;;;8.38;4.78;;;2.30;99.90;;;;;;7613999;19;20022;-75
2022/11/15 04:07:50;;;;;;;6.82;4.43;;;2.30;99.90;;;;;;7610655;19;20069;-76
2022/11/15 04:10:41;;;;;;;11.95;5.05;;;2.30;99.90;;;;;;7610563;19;20010;-75
2022/11/15 04:13:31;;;;;;;6.78;4.13;;;2.30;99.90;;;;;;7619780;19;20851;-76
2022/11/15 04:16:23;;;;;;;6.45;4.82;;;2.30;99.90;;;;;;7608217;19;20015;-75
2022/11/15 04:25:33;;;;;;;7.72;5.03;;;2.30;99.90;;;;;;7612252;19;20648;-75
2022/11/15 04:28:23;;;;;;;7.35;4.43;;;2.30;99.90;;;;;;7605797;19;20648;-75
2022/11/15 04:31:14;;;;;;;8.02;4.20;;;2.30;99.90;;;;;;7607327;19;20026;-75
2022/11/15 04:34:04;;;;;;;7.75;4.68;;;2.20;99.90;;;;;;7613871;19;20026;-75
2022/11/15 04:37:13;;;;;;;7.22;4.63;;;2.20;99.90;;;;;;7598769;19;20505;-75
2022/11/15 04:40:04;;;;;;;6.57;4.55;;;2.20;99.90;;;;;;7614227;19;21592;-75
2022/11/15 04:42:55;;;;;;;6.47;3.85;;;2.30;99.90;;;;;;7617637;19;21250;-75
2022/11/15 04:45:53;;;;;;;6.97;4.30;;;2.30;99.90;;;;;;7617369;19;20019;-75
2022/11/15 04:48:44;;;;;;;6.30;4.28;;;2.50;99.90;;;;;;7608727;19;20014;-75
2022/11/15 04:51:36;;;;;;;6.50;4.13;;;2.50;99.90;;;;;;7600081;19;20493;-75
2022/11/15 04:54:27;;;;;;;7.70;3.80;;;2.50;99.90;;;;;;7611243;19;20090;-76
2022/11/15 04:57:18;;;;;;;7.32;4.90;;;2.60;99.90;;;;;;7612483;19;20085;-75
2022/11/15 05:00:12;;;;;;;6.93;4.00;;;2.50;99.90;;;;;;7607979;19;20550;-76
2022/11/15 05:06:12;;;;;;;7.88;4.25;;;2.60;99.90;;;;;;7602142;19;20960;-75
2022/11/15 05:09:03;;;;;;;5.43;3.97;;;2.60;99.90;;;;;;7595293;19;20025;-75
2022/11/15 05:11:54;;;;;;;7.43;4.50;;;2.60;99.90;;;;;;7612168;19;20017;-75
2022/11/15 05:14:44;;;;;;;8.35;4.85;;;2.50;99.90;;;;;;7610963;19;20015;-75
2022/11/15 05:17:35;;;;;;;12.48;6.55;;;2.40;99.90;;;;;;7606105;19;20026;-76
2022/11/15 05:20:25;;;;;;;13.23;6.13;;;2.40;99.90;;;;;;7605991;19;20026;-75
2022/11/15 05:23:16;;;;;;;9.40;5.35;;;2.40;99.90;;;;;;7596353;19;20095;-75
2022/11/15 05:26:08;;;;;;;13.10;6.90;;;2.40;99.90;;;;;;7594522;19;20015;-75
2022/11/15 05:28:59;;;;;;;16.70;8.80;;;2.30;99.90;;;;;;7578863;19;20021;-75
2022/11/15 05:31:50;;;;;;;19.52;8.52;;;2.20;99.90;;;;;;7601541;19;20011;-75
2022/11/15 05:34:40;;;;;;;13.82;9.07;;;2.20;99.90;;;;;;7617145;19;20018;-76
2022/11/15 05:37:31;;;;;;;12.85;8.85;;;2.20;99.90;;;;;;7616813;19;20024;-76
2022/11/15 05:40:21;;;;;;;12.82;7.60;;;2.10;99.90;;;;;;7602236;19;20018;-76
2022/11/15 05:43:12;;;;;;;15.13;5.20;;;2.10;99.90;;;;;;7601654;19;20015;-75
2022/11/15 05:46:04;;;;;;;7.47;4.80;;;2.10;99.90;;;;;;7601544;19;20038;-75
2022/11/15 05:48:56;;;;;;;7.97;5.45;;;2.10;99.90;;;;;;7570097;19;20014;-75
2022/11/15 05:51:48;;;;;;;8.75;5.32;;;2.10;99.90;;;;;;7573823;19;20021;-75
2022/11/15 05:54:39;;;;;;;13.25;4.90;;;2.10;99.90;;;;;;7578563;19;21180;-75
2022/11/15 05:57:30;;;;;;;10.13;6.28;;;2.10;99.90;;;;;;7582064;19;20015;-75
2022/11/15 06:00:20;;;;;;;8.82;5.40;;;2.10;99.90;;;;;;7578449;19;20015;-75
2022/11/15 06:03:11;;;;;;;9.55;5.60;;;2.00;99.90;;;;;;7575162;19;20014;-76
2022/11/15 06:06:02;;;;;;;8.35;5.20;;;1.90;99.90;;;;;;7593303;19;20018;-75
2022/11/15 06:08:52;;;;;;;10.32;5.88;;;1.80;99.90;;;;;;7600418;19;20010;-76
2022/11/15 06:11:43;;;;;;;8.40;5.30;;;1.80;99.90;;;;;;7603273;19;20018;-77
2022/11/15 06:14:33;;;;;;;10.48;4.97;;;1.70;99.90;;;;;;7590031;19;20014;-77
2022/11/15 06:17:23;;;;;;;9.55;5.88;;;1.80;99.90;;;;;;7609095;19;20111;-78
2022/11/15 06:20:14;;;;;;;13.50;6.28;;;1.90;99.90;;;;;;7587814;19;20558;-77
2022/11/15 06:23:05;;;;;;;10.15;6.07;;;1.90;99.90;;;;;;7604491;19;20054;-78
2022/11/15 06:25:57;;;;;;;7.95;4.80;;;1.90;99.90;;;;;;7594429;19;20018;-79
2022/11/15 06:28:48;;;;;;;10.55;5.15;;;2.00;99.90;;;;;;7586054;19;20094;-76
2022/11/15 06:31:39;;;;;;;9.00;5.45;;;2.00;99.90;;;;;;7577993;19;20908;-76
2022/11/15 06:34:31;;;;;;;10.30;5.30;;;1.90;99.90;;;;;;7572469;19;20014;-76
2022/11/15 06:37:22;;;;;;;11.70;5.85;;;1.90;99.90;;;;;;7559197;19;20022;-77
2022/11/15 06:40:13;;;;;;;8.57;5.60;;;2.00;99.90;;;;;;7604860;19;20027;-76
2022/11/15 06:43:04;;;;;;;9.90;6.32;;;2.10;99.90;;;;;;7607122;19;20081;-77
2022/11/15 06:45:55;;;;;;;8.20;5.20;;;2.00;99.90;;;;;;7552166;19;20018;-76
2022/11/15 06:48:46;;;;;;;8.23;5.25;;;2.10;99.90;;;;;;7589096;19;20074;-76
2022/11/15 06:51:37;;;;;;;9.10;5.10;;;2.10;99.90;;;;;;7590408;19;20011;-76
2022/11/15 06:54:27;;;;;;;9.00;5.28;;;2.00;99.90;;;;;;7604383;19;20030;-75
2022/11/15 06:57:18;;;;;;;11.25;6.22;;;2.10;99.90;;;;;;7600626;19;20030;-76
2022/11/15 07:00:10;;;;;;;8.95;5.18;;;2.10;99.90;;;;;;7600785;19;20022;-76
2022/11/15 07:03:00;;;;;;;10.05;5.53;;;2.10;99.90;;;;;;7607321;19;20015;-76
2022/11/15 07:05:53;;;;;;;8.13;4.88;;;2.20;99.90;;;;;;7597393;19;20858;-77
2022/11/15 07:08:45;;;;;;;9.02;5.57;;;2.20;99.90;;;;;;7597836;19;20043;-76
2022/11/15 07:11:36;;;;;;;12.15;6.60;;;2.30;99.90;;;;;;7597507;19;20037;-77
2022/11/15 07:14:26;;;;;;;9.73;4.90;;;2.20;99.90;;;;;;7586881;19;20782;-76
2022/11/15 07:17:17;;;;;;;9.27;5.50;;;2.30;99.90;;;;;;7585038;19;20781;-76
2022/11/15 07:20:08;;;;;;;9.35;4.97;;;2.20;99.90;;;;;;7577555;19;20042;-76
2022/11/15 07:23:03;;;;;;;11.43;5.97;;;2.20;99.90;;;;;;7599045;19;20021;-76
2022/11/15 07:25:53;;;;;;;8.25;5.18;;;2.30;99.90;;;;;;7596713;19;20022;-76
2022/11/15 07:28:44;;;;;;;11.52;6.53;;;2.40;99.90;;;;;;7603658;19;20130;-76
2022/11/15 07:31:34;;;;;;;8.30;6.03;;;2.40;99.90;;;;;;7600246;19;20019;-76
2022/11/15 07:34:25;;;;;;;8.73;5.70;;;2.50;99.90;;;;;;7608911;19;20109;-76
2022/11/15 07:37:16;;;;;;;9.73;5.38;;;2.50;99.90;;;;;;7614191;19;20855;-76
2022/11/15 07:40:08;;;;;;;12.48;7.05;;;2.70;99.90;;;;;;7616243;19;20015;-76
2022/11/15 07:43:02;;;;;;;8.65;5.53;;;2.80;99.90;;;;;;7611880;19;20023;-77
2022/11/15 07:45:54;;;;;;;13.05;6.63;;;3.00;99.90;;;;;;7615918;19;20018;-76
2022/11/15 07:48:49;;;;;;;13.13;6.20;;;3.10;99.90;;;;;;7614541;19;20027;-76
2022/11/15 07:51:39;;;;;;;11.10;6.90;;;3.20;99.90;;;;;;7604480;19;20015;-77
2022/11/15 07:54:30;;;;;;;10.82;7.03;;;3.40;99.90;;;;;;7614710;19;20015;-76
2022/11/15 07:57:21;;;;;;;10.70;6.47;;;3.60;99.90;;;;;;7614926;19;20044;-77
2022/11/15 08:00:12;;;;;;;11.77;6.80;;;3.80;99.90;;;;;;7613269;19;20038;-77
2022/11/15 08:03:08;;;;;;;10.23;6.25;;;3.90;99.90;;;;;;7618220;19;20014;-77
2022/11/15 08:05:59;;;;;;;12.48;6.53;;;4.00;99.90;;;;;;7616423;19;20118;-76
2022/11/15 08:08:50;;;;;;;11.43;7.03;;;4.10;99.90;;;;;;7616085;19;20660;-77
2022/11/15 08:11:40;;;;;;;11.02;6.28;;;4.10;99.90;;;;;;7603680;19;20113;-77
2022/11/15 08:14:31;;;;;;;10.10;6.07;;;4.20;99.90;;;;;;7611950;19;20464;-76
2022/11/15 08:17:23;;;;;;;12.52;6.20;;;4.30;99.90;;;;;;7617345;19;20021;-77
2022/11/15 08:20:14;;;;;;;10.35;6.03;;;4.50;99.90;;;;;;7616680;19;20041;-77
2022/11/15 08:23:07;;;;;;;9.23;5.75;;;4.60;99.90;;;;;;7619230;19;20034;-77
2022/11/15 08:26:04;;;;;;;13.85;5.47;;;4.70;99.90;;;;;;7620480;19;20015;-77
2022/11/15 08:28:55;;;;;;;14.07;6.45;;;4.80;99.90;;;;;;7621017;19;20018;-76
2022/11/15 08:31:45;;;;;;;7.88;4.95;;;4.90;99.90;;;;;;7625101;19;20138;-77
2022/11/15 08:34:37;;;;;;;9.07;5.32;;;5.00;99.90;;;;;;7620926;19;20091;-76
2022/11/15 08:37:28;;;;;;;10.25;4.90;;;5.10;99.90;;;;;;7621563;19;20023;-76
2022/11/15 08:40:19;;;;;;;8.13;4.90;;;5.30;99.90;;;;;;7621353;19;20033;-76
2022/11/15 08:43:10;;;;;;;7.78;5.47;;;5.40;99.90;;;;;;7614021;19;20098;-76
2022/11/15 08:46:00;;;;;;;9.20;5.72;;;5.60;99.90;;;;;;7623818;19;20022;-76
2022/11/15 08:48:51;;;;;;;10.48;5.13;;;5.70;99.90;;;;;;7622015;19;20026;-77
2022/11/15 08:51:42;;;;;;;12.13;5.47;;;5.80;99.90;;;;;;7621182;19;20010;-76
2022/11/15 08:54:32;;;;;;;10.13;5.90;;;5.90;99.90;;;;;;7622078;19;20033;-76
2022/11/15 08:57:23;;;;;;;9.45;5.63;;;6.00;99.90;;;;;;7620835;19;20470;-76
2022/11/15 09:00:14;;;;;;;12.80;5.75;;;6.20;99.90;;;;;;7622657;19;20761;-77
2022/11/15 09:03:07;;;;;;;15.80;5.95;;;6.30;99.90;;;;;;7625033;19;20085;-76
2022/11/15 09:06:00;;;;;;;9.68;5.30;;;6.40;99.90;;;;;;7612516;19;20316;-77
2022/11/15 09:08:50;;;;;;;8.95;5.18;;;6.50;99.90;;;;;;7614895;19;20086;-77
2022/11/15 09:11:41;;;;;;;10.98;5.65;;;6.70;99.90;;;;;;7613382;19;20570;-77
2022/11/15 09:14:32;;;;;;;8.38;4.97;;;6.80;99.90;;;;;;7613163;19;20049;-76
2022/11/15 09:17:23;;;;;;;8.35;4.90;;;6.90;99.90;;;;;;7622333;19;20048;-77
2022/11/15 09:20:15;;;;;;;8.45;5.05;;;6.90;99.90;;;;;;7620623;19;20019;-77
2022/11/15 09:23:06;;;;;;;6.80;4.72;;;7.00;99.90;;;;;;7622598;19;20548;-77
2022/11/15 09:26:01;;;;;;;5.47;3.75;;;7.20;99.90;;;;;;7622513;19;20130;-76
2022/11/15 09:28:51;;;;;;;9.45;4.57;;;7.30;99.90;;;;;;7621372;19;20015;-77
2022/11/15 09:31:42;;;;;;;6.13;3.65;;;7.40;99.90;;;;;;7595729;19;20035;-77
2022/11/15 09:34:33;;;;;;;5.28;3.75;;;7.50;99.90;;;;;;7580959;19;20556;-77
2022/11/15 09:37:23;;;;;;;6.93;3.90;;;7.60;99.90;;;;;;7602955;19;20029;-77
2022/11/15 09:40:17;;;;;;;6.65;3.78;;;7.60;99.90;;;;;;7613223;19;21085;-77
2022/11/15 09:43:32;;;;;;;8.02;3.92;;;7.70;99.90;;;;;;7613813;19;20018;-77
2022/11/15 09:46:38;;;;;;;4.45;3.50;;;7.90;99.90;;;;;;7622454;19;20018;-77
2022/11/15 09:49:18;;;;;;;5.53;4.10;;;8.00;99.90;;;;;;7619056;19;20098;-77
2022/11/15 09:51:54;;;;;;;6.25;3.95;;;8.10;99.90;;;;;;7618435;19;20025;-77
2022/11/15 09:54:39;;;;;;;7.75;3.90;;;8.20;99.90;;;;;;7622244;19;20018;-77
2022/11/15 09:57:52;;;;;;;7.43;3.58;;;8.20;99.90;;;;;;7617574;19;20034;-77
2022/11/15 10:00:38;;;;;;;5.32;3.63;;;8.30;99.90;;;;;;7624197;19;20032;-76
2022/11/15 10:03:35;;;;;;;4.43;3.00;;;8.50;99.90;;;;;;7625671;19;20021;-77
2022/11/15 10:06:23;;;;;;;5.88;3.50;;;8.80;99.90;;;;;;7622318;19;20023;-78
2022/11/15 10:08:54;;;;;;;9.27;3.60;;;8.80;99.90;;;;;;7629394;19;20366;-77
2022/11/15 10:11:32;;;;;;;5.78;3.20;;;9.00;99.90;;;;;;7626944;19;20019;-77
2022/11/15 10:14:23;;;;;;;5.95;3.50;;;9.00;99.90;;;;;;7634070;19;20025;-78
2022/11/15 10:17:10;;;;;;;3.88;3.15;;;9.20;99.90;;;;;;7632496;19;20800;-76
2022/11/15 10:20:03;;;;;;;5.55;3.88;;;9.30;99.90;;;;;;7626248;19;20030;-77
2022/11/15 10:22:47;;;;;;;5.65;3.63;;;9.40;99.30;;;;;;7617015;19;20015;-76
2022/11/15 10:25:26;;;;;;;4.30;3.42;;;9.60;99.60;;;;;;7612211;19;20612;-77
2022/11/15 10:28:09;;;;;;;3.97;2.97;;;9.70;99.60;;;;;;7608486;19;20042;-76
2022/11/15 10:30:48;;;;;;;3.85;2.95;;;9.80;99.60;;;;;;7622952;19;20014;-77
2022/11/15 10:33:39;;;;;;;4.53;3.37;;;10.00;99.30;;;;;;7621418;19;20019;-77
2022/11/15 10:36:11;;;;;;;4.80;2.67;;;10.10;98.60;;;;;;7616221;19;20018;-77
2022/11/15 10:38:49;;;;;;;3.95;3.13;;;10.50;93.30;;;;;;7604434;19;20065;-77
2022/11/15 10:41:31;;;;;;;5.00;2.83;;;10.50;92.10;;;;;;7603859;19;20931;-78
2022/11/15 10:44:06;;;;;;;3.90;3.00;;;10.70;90.80;;;;;;7593162;19;20014;-75
2022/11/15 10:46:41;;;;;;;6.30;2.80;;;10.90;90.00;;;;;;7606686;19;20031;-77
2022/11/15 10:49:27;;;;;;;5.40;3.42;;;11.00;89.20;;;;;;7608504;19;20038;-77
2022/11/15 10:52:01;;;;;;;4.50;3.38;;;11.10;88.40;;;;;;7617342;19;20064;-76
2022/11/15 10:54:59;;;;;;;5.28;2.95;;;11.20;90.00;;;;;;7616441;19;20050;-77
2022/11/15 10:57:36;;;;;;;6.63;2.85;;;11.20;88.80;;;;;;7604331;19;20010;-76
2022/11/15 11:00:20;;;;;;;3.83;2.90;;;11.20;87.30;;;;;;7609512;19;20022;-75
2022/11/15 11:02:55;;;;;;;5.38;2.63;;;11.10;85.70;;;;;;7606727;19;20044;-77
2022/11/15 11:05:33;;;;;;;5.63;2.72;;;11.30;87.10;;;;;;7600673;19;20019;-76
2022/11/15 11:08:15;;;;;;;5.00;3.25;;;11.40;86.40;;;;;;7593035;19;20026;-78
2022/11/15 11:10:59;;;;;;;4.10;3.10;;;11.50;86.20;;;;;;7601618;19;20026;-78
2022/11/15 11:13:38;;;;;;;5.35;2.95;;;11.60;86.30;;;;;;7604425;19;20022;-77
2022/11/15 11:16:13;;;;;;;7.82;3.20;;;11.60;85.10;;;;;;7613986;19;20022;-77
2022/11/15 11:18:57;;;;;;;3.88;2.90;;;11.60;86.00;;;;;;7616601;19;20023;-77
2022/11/15 11:22:25;;;;;;;7.35;3.45;;;11.80;86.60;;;;;;7610187;19;20029;-77
2022/11/15 11:25:13;;;;;;;3.47;3.00;;;12.20;85.40;;;;;;7603409;19;20054;-77
2022/11/15 11:28:23;;;;;;;4.05;3.15;;;13.20;78.30;;;;;;7600724;19;20688;-77
2022/11/15 11:31:28;;;;;;;4.13;3.03;;;14.10;76.20;;;;;;7596952;19;20018;-77
2022/11/15 11:34:15;;;;;;;6.93;3.03;;;14.50;73.50;;;;;;7592224;19;20042;-79
2022/11/15 11:37:02;;;;;;;4.82;4.00;;;15.90;68.60;;;;;;7595389;19;20018;-78
2022/11/15 11:39:44;;;;;;;3.85;3.25;;;19.90;59.50;;;;;;7584638;19;20646;-77
2022/11/15 11:42:41;;;;;;;4.20;3.65;;;23.40;51.90;;;;;;7598912;19;20014;-78
2022/11/15 11:45:22;;;;;;;4.20;3.40;;;25.40;46.20;;;;;;7589490;19;20014;-78
2022/11/15 11:48:06;;;;;;;5.93;3.80;;;26.30;43.80;;;;;;7581796;19;20052;-77
2022/11/15 11:50:40;;;;;;;8.43;4.10;;;27.10;41.70;;;;;;7610055;19;20029;-78
2022/11/15 11:53:28;;;;;;;4.78;3.47;;;25.30;42.50;;;;;;7616534;19;20519;-78
2022/11/15 11:56:38;;;;;;;4.22;3.83;;;25.50;42.60;;;;;;7603163;19;20014;-79
2022/11/15 11:59:28;;;;;;;3.53;2.47;;;25.20;42.90;;;;;;7601011;19;20871;-76
2022/11/15 12:02:17;;;;;;;3.45;3.15;;;22.20;45.20;;;;;;7623993;19;20034;-78
2022/11/15 12:04:56;;;;;;;2.63;2.30;;;20.90;49.80;;;;;;7631432;19;20017;-79
2022/11/15 12:07:32;;;;;;;5.70;2.58;;;19.40;51.80;;;;;;7635585;19;20102;-77
2022/11/15 12:10:17;;;;;;;3.25;2.72;;;17.20;56.00;;;;;;7622597;19;20011;-76
2022/11/15 12:12:54;;;;;;;4.90;2.97;;;16.00;58.90;;;;;;7620955;19;20019;-77
2022/11/15 12:15:31;;;;;;;6.93;3.03;;;15.30;61.40;;;;;;7618411;19;20014;-76
2022/11/15 12:18:04;;;;;;;3.60;2.83;;;14.90;62.50;;;;;;7627286;19;20680;-76
2022/11/15 12:20:49;;;;;;;3.28;2.58;;;14.80;63.10;;;;;;7614593;19;20524;-76
2022/11/15 12:23:32;;;;;;;3.67;3.00;;;14.70;64.00;;;;;;7582386;19;20089;-76
2022/11/15 12:26:14;;;;;;;7.13;2.97;;;14.60;62.90;;;;;;7601404;19;20010;-77
2022/11/15 12:28:52;;;;;;;4.05;3.08;;;14.30;64.20;;;;;;7604735;19;21025;-76
2022/11/15 12:31:45;;;;;;;3.15;2.85;;;14.20;64.30;;;;;;7615208;19;20018;-76
2022/11/15 12:34:21;;;;;;;3.22;2.90;;;15.10;62.20;;;;;;7614480;19;20022;-75
2022/11/15 12:36:53;;;;;;;5.25;3.30;;;14.90;62.60;;;;;;7597193;19;20022;-76
2022/11/15 12:40:03;;;;;;;3.47;3.05;;;15.90;59.00;;;;;;7602810;19;20517;-76
2022/11/15 12:42:42;;;;;;;4.75;2.67;;;16.70;57.40;;;;;;7606067;19;20014;-76
2022/11/15 12:45:27;;;;;;;4.15;2.45;;;15.70;58.10;;;;;;7609483;19;20011;-76
2022/11/15 12:48:18;;;;;;;4.10;2.80;;;15.10;61.60;;;;;;7605459;19;20094;-76
2022/11/15 12:50:54;;;;;;;3.30;2.75;;;14.70;61.30;;;;;;7600294;19;20499;-76
2022/11/15 12:53:32;;;;;;;4.15;2.70;;;14.70;62.40;;;;;;7606092;19;21535;-77
2022/11/15 12:56:16;;;;;;;8.27;2.45;;;14.50;62.20;;;;;;7604431;19;20010;-78
2022/11/15 12:58:57;;;;;;;6.57;4.00;;;14.30;64.20;;;;;;7603543;19;20085;-77
2022/11/15 13:01:33;;;;;;;4.72;2.67;;;14.60;64.10;;;;;;7600762;19;20518;-78
2022/11/15 13:04:23;;;;;;;3.17;2.45;;;14.90;63.20;;;;;;7611441;19;20086;-76
2022/11/15 13:07:03;;;;;;;3.50;2.90;;;15.00;62.20;;;;;;7606526;19;20018;-76
2022/11/15 13:09:35;;;;;;;3.72;2.80;;;15.70;61.60;;;;;;7593374;19;20014;-76
2022/11/15 13:12:13;;;;;;;6.93;2.20;;;15.40;61.80;;;;;;7591279;19;20082;-77
2022/11/15 13:14:47;;;;;;;3.88;2.83;;;15.40;62.90;;;;;;7593007;19;21566;-76
2022/11/15 13:17:19;;;;;;;7.03;3.08;;;15.40;62.50;;;;;;7597748;19;20014;-77
2022/11/15 13:20:16;;;;;;;3.63;2.70;;;15.10;62.70;;;;;;7591235;19;20120;-75
2022/11/15 13:25:36;;;;;;;4.68;2.70;;;14.80;64.30;;;;;;7602735;19;20022;-77
2022/11/15 13:28:14;;;;;;;4.22;2.92;;;14.90;64.50;;;;;;7582839;19;20019;-77
2022/11/15 13:30:54;;;;;;;4.30;2.78;;;14.70;64.70;;;;;;7591113;19;20980;-77
2022/11/15 13:33:38;;;;;;;3.42;2.67;;;14.70;64.70;;;;;;7593641;19;20014;-77
2022/11/15 13:36:21;;;;;;;3.40;2.85;;;14.90;65.10;;;;;;7580097;19;20029;-77
2022/11/15 13:39:23;;;;;;;4.28;3.13;;;15.50;65.20;;;;;;7598337;19;20018;-77
2022/11/15 13:41:55;;;;;;;4.55;3.15;;;16.70;62.50;;;;;;7595066;19;20649;-76
2022/11/15 13:44:31;;;;;;;5.85;3.25;;;16.50;61.60;;;;;;7586700;19;20048;-77
2022/11/15 13:47:05;;;;;;;4.68;2.80;;;15.80;62.90;;;;;;7593548;19;20039;-76
2022/11/15 13:49:37;;;;;;;6.25;4.10;;;15.70;64.40;;;;;;7587316;19;20302;-76
2022/11/15 13:52:16;;;;;;;7.63;3.00;;;17.80;61.60;;;;;;7583580;19;25221;-77
2022/11/15 13:55:23;;;;;;;4.70;3.00;;;17.20;59.60;;;;;;7596999;19;20018;-77
2022/11/15 13:57:58;;;;;;;3.72;2.83;;;16.10;62.60;;;;;;7600635;19;20010;-77
2022/11/15 14:00:43;;;;;;;7.07;3.08;;;15.50;64.40;;;;;;7601710;19;20022;-76
2022/11/15 14:03:19;;;;;;;4.63;3.20;;;15.30;65.10;;;;;;7612273;19;20022;-78
2022/11/15 14:06:13;;;;;;;4.28;3.63;;;15.80;65.80;;;;;;7606320;19;20015;-77
2022/11/15 14:09:02;;;;;;;5.70;3.60;;;16.50;62.90;;;;;;7610500;19;20118;-76
2022/11/15 14:11:35;;;;;;;5.70;3.17;;;16.90;62.00;;;;;;7607163;19;20015;-77
2022/11/15 14:14:07;;;;;;;5.07;3.63;;;17.00;62.20;;;;;;7611241;19;20014;-77
2022/11/15 14:16:43;;;;;;;4.05;2.97;;;18.50;62.10;;;;;;7604759;19;20014;-76
2022/11/15 14:19:21;;;;;;;4.10;3.05;;;19.40;59.20;;;;;;7608933;19;20018;-77
2022/11/15 14:22:17;;;;;;;5.00;4.20;;;19.80;58.70;;;;;;7607576;19;20017;-76
2022/11/15 14:25:19;;;;;;;8.02;3.30;;;20.80;56.30;;;;;;7613131;19;20026;-77
2022/11/15 14:28:16;;;;;;;7.75;5.10;;;20.20;56.40;;;;;;7609143;19;20021;-76
2022/11/15 14:30:51;;;;;;;8.15;4.50;;;21.20;56.50;;;;;;7596965;19;20030;-78
2022/11/15 14:33:33;;;;;;;9.02;4.43;;;22.40;52.90;;;;;;7604074;19;20018;-76
2022/11/15 14:36:19;;;;;;;5.13;3.80;;;22.80;51.00;;;;;;7596758;19;21614;-76
2022/11/15 14:38:51;;;;;;;8.43;4.03;;;22.10;51.80;;;;;;7598476;19;20057;-76
2022/11/15 14:41:26;;;;;;;5.88;4.00;;;20.80;53.90;;;;;;7585561;19;20021;-76
2022/11/15 14:43:58;;;;;;;6.10;3.72;;;19.10;58.40;;;;;;7579061;19;20119;-76
2022/11/15 14:46:30;;;;;;;6.15;3.58;;;17.80;63.10;;;;;;7594624;19;20010;-76
2022/11/15 14:49:02;;;;;;;8.10;4.20;;;16.80;65.80;;;;;;7587466;19;20594;-77
2022/11/15 14:51:35;;;;;;;6.03;3.90;;;15.90;67.00;;;;;;7596568;19;20526;-77
2022/11/15 14:54:10;;;;;;;7.88;3.80;;;15.30;70.20;;;;;;7600864;19;20019;-76
2022/11/15 14:56:42;;;;;;;4.57;3.53;;;14.80;72.60;;;;;;7605764;19;20028;-76
2022/11/15 14:59:14;;;;;;;5.40;3.33;;;14.30;73.20;;;;;;7613865;19;20018;-76
2022/11/15 15:01:46;;;;;;;4.28;3.17;;;13.90;74.00;;;;;;7614101;19;20018;-76
2022/11/15 15:04:19;;;;;;;5.03;2.95;;;13.60;75.50;;;;;;7604861;19;20025;-76
2022/11/15 15:06:51;;;;;;;5.13;3.65;;;13.30;76.80;;;;;;7594203;19;20010;-76